createdAt,value
2018-07-05T00:00:46.473Z,95.50
2018-07-05T00:03:26.751Z,95.60
2018-07-05T00:06:07.413Z,95.90
2018-07-05T00:08:47.577Z,95.80
2018-07-05T00:11:28.440Z,95.70
2018-07-05T00:14:09.153Z,95.70
2018-07-05T00:16:49.301Z,96.00
2018-07-05T00:19:29.782Z,95.50
2018-07-05T00:22:10.281Z,95.80
2018-07-05T00:24:50.922Z,96.10
2018-07-05T00:27:31.489Z,96.20
2018-07-05T00:30:11.826Z,96.10
2018-07-05T00:32:52.552Z,96.30
2018-07-05T00:35:33.217Z,96.70
2018-07-05T00:40:47.789Z,96.80
2018-07-05T00:43:28.243Z,96.50
2018-07-05T00:46:08.450Z,96.70
2018-07-05T00:48:49.177Z,96.70
2018-07-05T00:51:29.500Z,96.70
2018-07-05T00:54:09.841Z,96.60
2018-07-05T00:56:50.348Z,96.40
2018-07-05T00:59:30.618Z,96.40
2018-07-05T01:02:11.040Z,96.50
2018-07-05T01:04:51.733Z,96.60
2018-07-05T01:07:31.938Z,96.60
2018-07-05T01:10:12.765Z,96.60
2018-07-05T01:12:53.401Z,96.60
2018-07-05T01:15:33.669Z,96.70
2018-07-05T01:18:14.142Z,96.70
2018-07-05T01:20:54.510Z,96.70
2018-07-05T01:23:35.080Z,96.70
2018-07-05T01:26:15.845Z,96.70
2018-07-05T01:28:56.044Z,96.70
2018-07-05T01:31:36.869Z,96.80
2018-07-05T01:34:17.378Z,96.80
2018-07-05T01:36:58.200Z,96.80
2018-07-05T01:39:38.400Z,96.70
2018-07-05T01:42:18.920Z,97.00
2018-07-05T01:45:00.812Z,97.00
2018-07-05T01:47:41.028Z,96.80
2018-07-05T01:50:21.536Z,96.70
2018-07-05T01:53:02.078Z,96.80
2018-07-05T01:55:42.777Z,96.90
2018-07-05T01:58:23.204Z,96.90
2018-07-05T02:01:03.777Z,96.90
2018-07-05T02:03:44.256Z,96.90
2018-07-05T02:06:24.500Z,97.00
2018-07-05T02:09:05.501Z,97.10
2018-07-05T02:11:45.862Z,97.20
2018-07-05T02:14:26.372Z,97.30
2018-07-05T02:17:06.889Z,97.20
2018-07-05T02:22:22.355Z,97.30
2018-07-05T02:25:02.961Z,97.40
2018-07-05T02:27:43.381Z,97.30
2018-07-05T02:30:23.853Z,97.20
2018-07-05T02:33:04.113Z,97.20
2018-07-05T02:35:44.884Z,97.30
2018-07-05T02:38:25.781Z,97.60
2018-07-05T02:43:41.209Z,97.40
2018-07-05T02:46:22.246Z,97.60
2018-07-05T02:49:02.553Z,97.70
2018-07-05T02:51:42.934Z,97.60
2018-07-05T02:54:23.628Z,97.60
2018-07-05T02:57:03.949Z,97.70
2018-07-05T02:59:44.021Z,97.70
2018-07-05T03:02:24.714Z,97.70
2018-07-05T03:05:05.373Z,97.70
2018-07-05T03:07:45.568Z,97.90
2018-07-05T03:10:25.732Z,97.50
2018-07-05T03:13:06.114Z,97.70
2018-07-05T03:15:46.573Z,98.00
2018-07-05T03:18:27.264Z,98.10
2018-07-05T03:21:07.669Z,98.20
2018-07-05T03:23:47.982Z,98.10
2018-07-05T03:26:28.253Z,98.30
2018-07-05T03:29:08.921Z,98.40
2018-07-05T03:31:49.654Z,98.50
2018-07-05T03:34:30.229Z,98.70
2018-07-05T03:37:10.612Z,99.10
2018-07-05T03:39:50.941Z,98.80
2018-07-05T03:42:31.147Z,98.90
2018-07-05T03:45:11.472Z,98.80
2018-07-05T03:47:51.689Z,98.70
2018-07-05T03:50:31.789Z,98.70
2018-07-05T03:53:12.128Z,98.50
2018-07-05T03:55:52.472Z,98.50
2018-07-05T03:58:32.849Z,98.40
2018-07-05T04:01:13.324Z,98.20
2018-07-05T04:03:53.681Z,98.20
2018-07-05T04:06:34.232Z,98.20
2018-07-05T04:09:14.573Z,98.00
2018-07-05T04:11:55.077Z,97.80
2018-07-05T04:14:35.681Z,97.70
2018-07-05T04:17:16.223Z,97.60
2018-07-05T04:19:56.747Z,97.30
2018-07-05T04:22:37.009Z,97.20
2018-07-05T04:25:17.365Z,97.20
2018-07-05T04:27:57.761Z,97.10
2018-07-05T04:30:38.421Z,97.20
2018-07-05T04:33:18.639Z,97.00
2018-07-05T04:35:59.210Z,97.10
2018-07-05T04:38:39.594Z,96.90
2018-07-05T04:41:19.773Z,96.90
2018-07-05T04:44:00.201Z,96.90
2018-07-05T04:46:40.672Z,96.80
2018-07-05T04:49:22.171Z,96.60
2018-07-05T04:52:02.531Z,96.70
2018-07-05T04:54:42.975Z,96.60
2018-07-05T04:57:23.557Z,96.20
2018-07-05T05:00:04.006Z,95.90
2018-07-05T05:02:44.609Z,95.90
2018-07-05T05:05:25.320Z,95.50
2018-07-05T05:08:05.885Z,95.40
2018-07-05T05:10:46.213Z,95.10
2018-07-05T05:13:26.630Z,95.00
2018-07-05T05:16:07.927Z,94.90
2018-07-05T05:18:48.559Z,94.80
2018-07-05T05:21:35.198Z,94.30
2018-07-05T05:24:15.864Z,94.00
2018-07-05T05:26:56.103Z,93.80
2018-07-05T05:29:36.477Z,93.80
2018-07-05T05:32:17.157Z,93.80
2018-07-05T05:34:58.732Z,93.40
2018-07-05T05:37:39.042Z,93.00
2018-07-05T05:40:19.729Z,92.60
2018-07-05T05:43:00.218Z,92.50
2018-07-05T05:45:40.426Z,92.20
2018-07-05T05:48:21.120Z,91.90
2018-07-05T05:51:02.494Z,91.50
2018-07-05T05:53:43.002Z,91.30
2018-07-05T05:56:23.520Z,90.90
2018-07-05T05:59:04.214Z,91.00
2018-07-05T06:01:44.529Z,90.40
2018-07-05T06:04:25.466Z,90.10
2018-07-05T06:07:05.906Z,89.60
2018-07-05T06:09:46.240Z,89.10
2018-07-05T06:12:26.852Z,88.20
2018-07-05T06:17:42.118Z,87.80
2018-07-05T06:20:22.633Z,87.70
2018-07-05T06:23:04.381Z,86.40
2018-07-05T06:25:44.610Z,86.30
2018-07-05T06:28:27.789Z,86.20
2018-07-05T06:31:08.125Z,85.20
2018-07-05T06:33:48.557Z,84.60
2018-07-05T06:36:28.881Z,84.00
2018-07-05T06:39:09.477Z,83.10
2018-07-05T06:41:55.826Z,84.80
2018-07-05T06:44:38.631Z,84.70
2018-07-05T06:47:19.177Z,80.90
2018-07-05T06:49:59.871Z,80.20
2018-07-05T06:52:41.157Z,81.90
2018-07-05T06:55:21.754Z,81.30
2018-07-05T06:58:02.792Z,80.40
2018-07-05T07:03:17.988Z,85.10
2018-07-05T07:08:34.389Z,85.70
2018-07-05T07:11:15.069Z,82.80
2018-07-05T07:13:55.634Z,82.60
2018-07-05T07:16:36.615Z,80.70
2018-07-05T07:19:17.377Z,80.10
2018-07-05T07:21:57.714Z,80.50
2018-07-05T07:24:38.400Z,79.20
2018-07-05T07:27:19.014Z,78.40
2018-07-05T07:29:59.419Z,78.00
2018-07-05T07:32:41.151Z,77.40
2018-07-05T07:35:21.910Z,77.20
2018-07-05T07:38:02.967Z,77.40
2018-07-05T07:40:43.909Z,76.30
2018-07-05T07:43:13.206Z,75.40
2018-07-05T07:45:42.267Z,75.60
2018-07-05T07:48:10.612Z,76.60
2018-07-05T07:50:38.685Z,75.60
2018-07-05T07:55:35.336Z,74.80
2018-07-05T07:58:03.458Z,73.50
2018-07-05T08:00:32.608Z,74.50
2018-07-05T08:03:00.950Z,72.90
2018-07-05T08:05:29.656Z,72.20
2018-07-05T08:07:58.676Z,72.30
2018-07-05T08:10:27.018Z,72.10
2018-07-05T08:12:54.986Z,72.40
2018-07-05T08:15:23.055Z,72.10
2018-07-05T08:17:52.119Z,71.10
2018-07-05T08:20:20.547Z,70.10
2018-07-05T08:22:48.810Z,70.10
2018-07-05T08:25:16.995Z,70.00
2018-07-05T08:27:45.628Z,68.40
2018-07-05T08:30:13.915Z,68.90
2018-07-05T08:32:42.054Z,68.70
2018-07-05T08:35:10.361Z,72.70
2018-07-05T08:37:38.501Z,74.80
2018-07-05T08:40:06.884Z,74.10
2018-07-05T08:42:35.870Z,71.70
2018-07-05T08:45:04.535Z,70.50
2018-07-05T08:47:36.830Z,70.60
2018-07-05T08:50:05.180Z,70.00
2018-07-05T08:52:33.763Z,69.40
2018-07-05T08:55:01.938Z,68.20
2018-07-05T08:57:30.511Z,68.30
2018-07-05T08:59:59.488Z,67.20
2018-07-05T09:02:27.641Z,67.00
2018-07-05T09:04:57.197Z,66.00
2018-07-05T09:07:27.041Z,67.50
2018-07-05T09:09:55.311Z,67.90
2018-07-05T09:12:23.425Z,72.60
2018-07-05T09:14:51.555Z,74.60
2018-07-05T09:17:19.643Z,74.70
2018-07-05T09:19:48.305Z,76.00
2018-07-05T09:22:16.693Z,75.30
2018-07-05T09:24:45.078Z,75.60
2018-07-05T09:27:13.337Z,75.40
2018-07-05T09:29:41.743Z,74.70
2018-07-05T09:32:09.937Z,76.80
2018-07-05T09:34:47.560Z,75.70
2018-07-05T09:37:17.004Z,74.90
2018-07-05T09:39:45.189Z,73.30
2018-07-05T09:42:13.205Z,74.60
2018-07-05T09:44:41.266Z,74.60
2018-07-05T09:47:09.468Z,73.60
2018-07-05T09:49:37.856Z,72.10
2018-07-05T09:52:06.085Z,71.80
2018-07-05T09:54:34.193Z,72.40
2018-07-05T09:57:02.556Z,72.50
2018-07-05T09:59:30.901Z,71.40
2018-07-05T10:01:58.961Z,69.60
2018-07-05T10:04:27.029Z,70.30
2018-07-05T10:06:55.525Z,70.40
2018-07-05T10:09:26.470Z,69.70
2018-07-05T10:11:56.005Z,68.60
2018-07-05T10:14:24.565Z,67.00
2018-07-05T10:16:53.714Z,65.00
2018-07-05T10:19:22.252Z,67.20
2018-07-05T10:21:51.316Z,66.30
2018-07-05T10:24:20.058Z,66.70
2018-07-05T10:26:48.776Z,69.40
2018-07-05T10:29:29.597Z,69.00
2018-07-05T10:32:10.398Z,70.50
2018-07-05T10:34:38.505Z,67.60
2018-07-05T10:37:06.828Z,68.70
2018-07-05T10:39:35.712Z,69.60
2018-07-05T10:42:16.169Z,69.20
2018-07-05T10:44:56.715Z,71.50
2018-07-05T10:47:37.145Z,70.30
2018-07-05T10:50:17.741Z,68.00
2018-07-05T10:52:57.919Z,67.40
2018-07-05T10:55:38.316Z,67.80
2018-07-05T10:58:18.646Z,67.70
2018-07-05T11:00:59.059Z,71.50
2018-07-05T11:03:39.588Z,73.80
2018-07-05T11:06:20.273Z,74.70
2018-07-05T11:11:35.394Z,71.00
2018-07-05T11:14:15.877Z,71.90
2018-07-05T11:16:56.491Z,70.60
2018-07-05T11:19:36.915Z,73.20
2018-07-05T11:22:17.897Z,74.40
2018-07-05T11:24:58.477Z,76.00
2018-07-05T11:27:38.785Z,78.00
2018-07-05T11:30:20.981Z,76.30
2018-07-05T11:33:01.661Z,73.10
2018-07-05T11:35:42.074Z,72.70
2018-07-05T11:38:23.650Z,71.30
2018-07-05T11:41:04.279Z,73.20
2018-07-05T11:43:45.071Z,73.50
2018-07-05T11:46:25.605Z,74.00
2018-07-05T11:49:07.723Z,74.20
2018-07-05T11:51:48.236Z,75.60
2018-07-05T11:54:29.338Z,72.50
2018-07-05T11:57:11.547Z,73.90
2018-07-05T11:59:52.861Z,72.90
2018-07-05T12:02:33.153Z,73.40
2018-07-05T12:05:13.453Z,73.30
2018-07-05T12:07:53.843Z,72.70
2018-07-05T12:10:34.811Z,73.30
2018-07-05T12:13:16.007Z,72.70
2018-07-05T12:15:56.375Z,72.60
2018-07-05T12:18:37.019Z,73.20
2018-07-05T12:21:17.992Z,70.80
2018-07-05T12:23:59.482Z,71.60
2018-07-05T12:26:40.604Z,69.50
2018-07-05T12:29:21.548Z,71.30
2018-07-05T12:32:02.322Z,71.80
2018-07-05T12:34:43.281Z,72.00
2018-07-05T12:37:25.476Z,72.40
2018-07-05T12:40:05.837Z,71.70
2018-07-05T12:42:48.892Z,69.80
2018-07-05T12:45:30.244Z,69.90
2018-07-05T12:48:11.726Z,73.60
2018-07-05T12:50:52.189Z,75.10
2018-07-05T12:53:33.202Z,74.80
2018-07-05T12:56:15.024Z,74.30
2018-07-05T12:58:55.403Z,73.30
2018-07-05T13:01:36.189Z,73.60
2018-07-05T13:04:17.140Z,74.80
2018-07-05T13:06:57.612Z,73.60
2018-07-05T13:09:41.467Z,75.10
2018-07-05T13:12:23.207Z,73.30
2018-07-05T13:15:04.030Z,73.80
2018-07-05T13:17:44.549Z,71.60
2018-07-05T13:20:25.057Z,70.60
2018-07-05T13:23:05.928Z,69.80
2018-07-05T13:25:46.271Z,70.20
2018-07-05T13:28:26.696Z,72.20
2018-07-05T13:31:07.109Z,69.80
2018-07-05T13:33:47.800Z,67.20
2018-07-05T13:36:28.164Z,68.10
2018-07-05T13:39:09.363Z,69.50
2018-07-05T13:41:49.708Z,68.70
2018-07-05T13:44:30.021Z,70.00
2018-07-05T13:47:12.296Z,68.60
2018-07-05T13:49:55.718Z,66.60
2018-07-05T13:52:37.130Z,67.50
2018-07-05T13:55:20.078Z,69.50
2018-07-05T13:58:00.685Z,69.80
2018-07-05T14:00:41.732Z,69.70
2018-07-05T14:03:22.341Z,70.90
2018-07-05T14:06:05.878Z,70.20
2018-07-05T14:08:46.831Z,69.50
2018-07-05T14:11:27.221Z,68.10
2018-07-05T14:14:08.865Z,69.00
2018-07-05T14:16:49.294Z,69.20
2018-07-05T14:19:29.897Z,69.10
2018-07-05T14:22:14.753Z,69.70
2018-07-05T14:24:55.180Z,72.90
2018-07-05T14:27:36.146Z,72.20
2018-07-05T14:30:17.047Z,72.20
2018-07-05T14:32:58.702Z,72.90
2018-07-05T14:35:39.094Z,71.70
2018-07-05T14:38:23.528Z,72.20
2018-07-05T14:41:04.062Z,74.10
2018-07-05T14:43:44.824Z,73.60
2018-07-05T14:46:25.432Z,73.90
2018-07-05T14:49:06.357Z,75.90
2018-07-05T14:54:21.452Z,76.10
2018-07-05T14:57:01.671Z,75.40
2018-07-05T14:59:41.930Z,75.90
2018-07-05T15:02:22.568Z,76.10
2018-07-05T15:05:03.059Z,75.30
2018-07-05T15:07:43.752Z,74.60
2018-07-05T15:10:24.232Z,74.70
2018-07-05T15:13:05.382Z,75.90
2018-07-05T15:15:45.925Z,75.50
2018-07-05T15:18:26.296Z,75.20
2018-07-05T15:21:06.921Z,75.60
2018-07-05T15:23:47.307Z,74.60
2018-07-05T15:26:27.324Z,74.50
2018-07-05T15:29:07.549Z,74.50
2018-07-05T15:31:48.099Z,74.30
2018-07-05T15:34:29.556Z,73.60
2018-07-05T15:37:10.760Z,73.30
2018-07-05T15:39:52.207Z,73.30
2018-07-05T15:42:32.597Z,73.30
2018-07-05T15:45:13.006Z,74.40
2018-07-05T15:50:29.336Z,72.90
2018-07-05T15:53:10.142Z,75.80
2018-07-05T15:55:50.476Z,76.00
2018-07-05T15:58:31.464Z,75.60
2018-07-05T16:01:12.941Z,75.30
2018-07-05T16:06:28.417Z,74.70
2018-07-05T16:09:09.265Z,75.40
2018-07-05T16:11:50.605Z,75.40
2018-07-05T16:14:31.361Z,74.50
2018-07-05T16:17:11.741Z,73.90
2018-07-05T16:19:52.136Z,73.20
2018-07-05T16:22:32.753Z,73.00
2018-07-05T16:25:13.753Z,72.90
2018-07-05T16:27:54.150Z,72.50
2018-07-05T16:30:34.769Z,72.70
2018-07-05T16:33:15.231Z,72.90
2018-07-05T16:35:55.814Z,72.50
2018-07-05T16:38:36.459Z,72.30
2018-07-05T16:41:17.157Z,72.30
2018-07-05T16:43:57.509Z,73.30
2018-07-05T16:46:38.269Z,72.00
2018-07-05T16:49:18.847Z,71.00
2018-07-05T16:51:59.199Z,72.30
2018-07-05T16:54:39.812Z,71.50
2018-07-05T16:57:20.195Z,72.00
2018-07-05T17:00:01.105Z,72.40
2018-07-05T17:02:43.588Z,71.80
2018-07-05T17:05:25.155Z,71.80
2018-07-05T17:08:06.567Z,72.10
2018-07-05T17:10:47.619Z,72.00
2018-07-05T17:13:29.406Z,71.30
2018-07-05T17:16:10.441Z,72.10
2018-07-05T17:18:51.360Z,72.00
2018-07-05T17:21:32.297Z,71.70
2018-07-05T17:24:13.982Z,72.50
2018-07-05T17:26:54.749Z,71.90
2018-07-05T17:29:36.865Z,70.80
2018-07-05T17:34:55.313Z,71.40
2018-07-05T17:37:36.794Z,72.10
2018-07-05T17:40:18.627Z,72.20
2018-07-05T17:43:00.798Z,71.30
2018-07-05T17:45:41.849Z,70.90
2018-07-05T17:48:24.041Z,71.50
2018-07-05T17:51:06.309Z,71.60
2018-07-05T17:53:51.529Z,72.00
2018-07-05T17:56:34.082Z,71.30
2018-07-05T17:59:15.578Z,73.20
2018-07-05T18:01:57.001Z,73.80
2018-07-05T18:04:37.803Z,74.00
2018-07-05T18:07:18.998Z,74.10
2018-07-05T18:10:00.587Z,74.10
2018-07-05T18:12:41.529Z,74.40
2018-07-05T18:15:22.326Z,77.10
2018-07-05T18:18:03.046Z,78.00
2018-07-05T18:20:43.169Z,77.70
2018-07-05T18:23:23.674Z,77.90
2018-07-05T18:26:04.153Z,78.60
2018-07-05T18:28:44.700Z,78.80
2018-07-05T18:31:25.057Z,78.60
2018-07-05T18:34:05.395Z,79.10
2018-07-05T18:36:45.915Z,79.70
2018-07-05T18:39:26.366Z,80.20
2018-07-05T18:42:07.453Z,80.40
2018-07-05T18:47:21.961Z,81.50
2018-07-05T18:50:02.787Z,82.40
2018-07-05T18:52:43.477Z,83.10
2018-07-05T18:55:23.990Z,83.50
2018-07-05T18:58:05.008Z,84.00
2018-07-05T19:00:45.692Z,84.70
2018-07-05T19:06:15.248Z,85.20
2018-07-05T19:08:55.969Z,86.00
2018-07-05T19:11:36.300Z,86.40
2018-07-05T19:14:16.781Z,87.30
2018-07-05T19:16:57.444Z,88.90
2018-07-05T19:19:38.017Z,89.40
2018-07-05T19:22:18.965Z,89.40
2018-07-05T19:25:00.248Z,89.50
2018-07-05T19:27:40.864Z,89.00
2018-07-05T19:30:21.775Z,89.50
2018-07-05T19:33:02.595Z,90.00
2018-07-05T19:38:19.092Z,90.10
2018-07-05T19:41:00.361Z,90.40
2018-07-05T19:43:41.073Z,90.70
2018-07-05T19:46:22.813Z,90.90
2018-07-05T19:49:03.787Z,91.00
2018-07-05T19:51:44.665Z,91.10
2018-07-05T19:54:26.632Z,91.20
2018-07-05T19:57:07.568Z,91.60
2018-07-05T19:59:48.713Z,92.20
2018-07-05T20:02:29.851Z,92.10
2018-07-05T20:05:10.246Z,92.10
2018-07-05T20:07:51.791Z,92.30
2018-07-05T20:10:33.141Z,92.70
2018-07-05T20:13:14.075Z,93.10
2018-07-05T20:15:54.181Z,93.40
2018-07-05T20:18:35.492Z,93.30
2018-07-05T20:21:16.060Z,93.30
2018-07-05T20:23:58.224Z,93.10
2018-07-05T20:26:39.895Z,93.00
2018-07-05T20:29:21.580Z,93.50
2018-07-05T20:32:02.237Z,93.00
2018-07-05T20:34:43.209Z,92.90
2018-07-05T20:37:24.013Z,93.00
2018-07-05T20:40:05.244Z,93.10
2018-07-05T20:42:45.846Z,93.20
2018-07-05T20:45:27.762Z,93.30
2018-07-05T20:48:15.820Z,93.40
2018-07-05T20:50:58.474Z,93.60
2018-07-05T20:53:39.076Z,93.80
2018-07-05T20:56:19.665Z,94.10
2018-07-05T20:59:01.359Z,94.40
2018-07-05T21:01:42.505Z,94.30
2018-07-05T21:04:23.222Z,94.60
2018-07-05T21:07:03.461Z,94.70
2018-07-05T21:09:43.800Z,94.90
2018-07-05T21:14:59.270Z,94.70
2018-07-05T21:17:39.652Z,94.70
2018-07-05T21:20:20.431Z,94.80
2018-07-05T21:23:00.754Z,94.70
2018-07-05T21:25:41.415Z,94.70
2018-07-05T21:28:21.653Z,94.80
2018-07-05T21:31:02.394Z,95.00
2018-07-05T21:33:42.803Z,95.10
2018-07-05T21:36:23.400Z,95.20
2018-07-05T21:39:04.137Z,95.30
2018-07-05T21:41:44.405Z,95.70
2018-07-05T21:44:24.963Z,95.30
2018-07-05T21:47:05.456Z,95.30
2018-07-05T21:49:46.342Z,95.30
2018-07-05T21:52:26.801Z,95.30
2018-07-05T21:55:07.152Z,95.40
2018-07-05T22:00:23.351Z,95.50
2018-07-05T22:03:04.017Z,95.40
2018-07-05T22:05:44.297Z,95.50
2018-07-05T22:08:24.636Z,95.50
2018-07-05T22:11:04.952Z,95.50
2018-07-05T22:13:45.369Z,95.50
2018-07-05T22:19:05.573Z,95.70
2018-07-05T22:21:51.430Z,95.80
2018-07-05T22:24:37.318Z,95.70
2018-07-05T22:27:23.209Z,95.70
2018-07-05T22:30:08.790Z,95.60
2018-07-05T22:32:49.495Z,95.60
2018-07-05T22:35:30.021Z,95.60
2018-07-05T22:38:10.417Z,95.60
2018-07-05T22:40:50.777Z,95.40
2018-07-05T22:46:05.603Z,95.70
2018-07-05T22:48:46.113Z,96.10
2018-07-05T22:51:26.305Z,95.70
2018-07-05T22:54:06.395Z,95.60
2018-07-05T22:56:46.796Z,95.60
2018-07-05T22:59:27.244Z,95.70
2018-07-05T23:02:07.752Z,95.70
2018-07-05T23:04:48.277Z,95.70
2018-07-05T23:07:28.792Z,95.90
2018-07-05T23:10:09.173Z,96.00
2018-07-05T23:12:49.493Z,95.90
2018-07-05T23:15:30.233Z,96.00
2018-07-05T23:20:45.183Z,96.20
2018-07-05T23:23:25.868Z,96.10
2018-07-05T23:26:06.566Z,96.10
2018-07-05T23:28:47.057Z,96.20
2018-07-05T23:31:27.566Z,96.10
2018-07-05T23:34:08.212Z,96.20
2018-07-05T23:36:48.596Z,96.20
2018-07-05T23:39:29.261Z,96.20
2018-07-05T23:42:09.928Z,96.10
2018-07-05T23:44:50.523Z,96.10
2018-07-05T23:47:31.170Z,96.20
2018-07-05T23:50:11.497Z,96.30
2018-07-05T23:52:51.982Z,96.00
2018-07-05T23:55:32.525Z,96.30
2018-07-05T23:58:12.987Z,96.30
